sensor_id;sensor_type;location;lat;lon;timestamp;pressure;altitude;pressure_sealevel;temperature;humidity
72794;BME280;63436;26.334;50.194;2023-02-28T00:00:58;61397.39;;;13.18;65.05
72794;BME280;63436;26.334;50.194;2023-02-28T00:03:24;61397.39;;;13.18;65.05
72794;BME280;63436;26.334;50.194;2023-02-28T00:05:49;61397.39;;;13.18;65.05
72794;BME280;63436;26.334;50.194;2023-02-28T00:08:14;61397.39;;;12.94;65.05
72794;BME280;63436;26.334;50.194;2023-02-28T00:10:40;61397.39;;;13.18;65.05
72794;BME280;63436;26.334;50.194;2023-02-28T00:13:06;61397.39;;;12.94;65.05
72794;BME280;63436;26.334;50.194;2023-02-28T00:15:32;61397.39;;;13.18;65.05
72794;BME280;63436;26.334;50.194;2023-02-28T00:17:57;61397.39;;;12.94;65.05
72794;BME280;63436;26.334;50.194;2023-02-28T00:20:22;61397.39;;;13.18;65.05
72794;BME280;63436;26.334;50.194;2023-02-28T00:22:59;61397.39;;;13.18;65.05
72794;BME280;63436;26.334;50.194;2023-02-28T00:25:14;61397.39;;;13.18;65.05
72794;BME280;63436;26.334;50.194;2023-02-28T00:27:39;61397.39;;;13.42;65.05
72794;BME280;63436;26.334;50.194;2023-02-28T00:30:06;61397.39;;;13.18;65.05
72794;BME280;63436;26.334;50.194;2023-02-28T00:32:29;61397.39;;;13.42;65.05
72794;BME280;63436;26.334;50.194;2023-02-28T00:34:54;61397.39;;;13.18;65.05
72794;BME280;63436;26.334;50.194;2023-02-28T00:37:20;61397.39;;;13.18;65.05
72794;BME280;63436;26.334;50.194;2023-02-28T00:39:46;61397.39;;;13.18;65.05
72794;BME280;63436;26.334;50.194;2023-02-28T00:42:11;61397.39;;;13.18;65.05
72794;BME280;63436;26.334;50.194;2023-02-28T00:44:37;61397.39;;;13.42;65.05
72794;BME280;63436;26.334;50.194;2023-02-28T00:47:02;61397.39;;;13.18;65.05
72794;BME280;63436;26.334;50.194;2023-02-28T00:49:27;61397.39;;;13.18;65.05
72794;BME280;63436;26.334;50.194;2023-02-28T00:51:54;61397.39;;;13.18;65.05
72794;BME280;63436;26.334;50.194;2023-02-28T00:54:18;61397.39;;;13.42;65.05
72794;BME280;63436;26.334;50.194;2023-02-28T00:56:43;61397.39;;;13.42;65.05
72794;BME280;63436;26.334;50.194;2023-02-28T00:59:09;61397.39;;;13.18;65.05
72794;BME280;63436;26.334;50.194;2023-02-28T01:01:39;61397.39;;;13.42;65.05
72794;BME280;63436;26.334;50.194;2023-02-28T01:03:59;61397.39;;;13.18;65.05
72794;BME280;63436;26.334;50.194;2023-02-28T01:06:25;61397.39;;;13.42;65.05
72794;BME280;63436;26.334;50.194;2023-02-28T01:08:50;61397.39;;;13.18;65.05
72794;BME280;63436;26.334;50.194;2023-02-28T01:11:17;61397.39;;;13.18;65.05
72794;BME280;63436;26.334;50.194;2023-02-28T01:13:43;61397.39;;;13.18;65.05
72794;BME280;63436;26.334;50.194;2023-02-28T01:16:07;61397.39;;;13.18;65.05
72794;BME280;63436;26.334;50.194;2023-02-28T01:18:31;61397.39;;;13.18;65.05
72794;BME280;63436;26.334;50.194;2023-02-28T01:20:57;61397.39;;;13.66;65.05
72794;BME280;63436;26.334;50.194;2023-02-28T01:23:23;61397.39;;;13.18;65.05
72794;BME280;63436;26.334;50.194;2023-02-28T01:25:48;61397.39;;;13.42;65.05
72794;BME280;63436;26.334;50.194;2023-02-28T01:28:13;61397.39;;;13.18;65.05
72794;BME280;63436;26.334;50.194;2023-02-28T01:30:38;61397.39;;;13.18;65.05
72794;BME280;63436;26.334;50.194;2023-02-28T01:33:04;61397.39;;;13.18;65.05
72794;BME280;63436;26.334;50.194;2023-02-28T01:35:32;61397.39;;;13.18;65.05
72794;BME280;63436;26.334;50.194;2023-02-28T01:37:55;61397.39;;;13.18;65.05
72794;BME280;63436;26.334;50.194;2023-02-28T01:40:20;61397.39;;;13.18;65.05
72794;BME280;63436;26.334;50.194;2023-02-28T01:42:45;61397.39;;;13.18;65.05
72794;BME280;63436;26.334;50.194;2023-02-28T01:45:19;61397.39;;;13.18;65.05
72794;BME280;63436;26.334;50.194;2023-02-28T01:47:42;61397.39;;;13.18;65.05
72794;BME280;63436;26.334;50.194;2023-02-28T01:50:07;61397.39;;;13.18;65.05
72794;BME280;63436;26.334;50.194;2023-02-28T01:52:36;61397.39;;;13.18;65.05
72794;BME280;63436;26.334;50.194;2023-02-28T01:55:03;61397.39;;;13.42;65.05
72794;BME280;63436;26.334;50.194;2023-02-28T01:57:21;61397.39;;;13.18;65.05
72794;BME280;63436;26.334;50.194;2023-02-28T01:59:46;61397.39;;;13.18;65.05
72794;BME280;63436;26.334;50.194;2023-02-28T02:02:10;61397.39;;;13.18;65.05
72794;BME280;63436;26.334;50.194;2023-02-28T02:04:39;61397.39;;;13.18;65.05
72794;BME280;63436;26.334;50.194;2023-02-28T02:07:00;61397.39;;;13.18;65.05
72794;BME280;63436;26.334;50.194;2023-02-28T02:09:26;61397.39;;;12.94;65.05
72794;BME280;63436;26.334;50.194;2023-02-28T02:11:52;61397.39;;;13.18;65.05
72794;BME280;63436;26.334;50.194;2023-02-28T02:14:28;61397.39;;;13.18;65.05
72794;BME280;63436;26.334;50.194;2023-02-28T02:16:51;61397.39;;;13.18;65.05
72794;BME280;63436;26.334;50.194;2023-02-28T02:19:18;61397.39;;;13.18;65.05
72794;BME280;63436;26.334;50.194;2023-02-28T02:21:45;61397.39;;;13.18;65.05
72794;BME280;63436;26.334;50.194;2023-02-28T02:24:13;61397.39;;;13.18;65.05
72794;BME280;63436;26.334;50.194;2023-02-28T02:29:00;61397.39;;;13.18;65.05
72794;BME280;63436;26.334;50.194;2023-02-28T02:31:28;61397.39;;;12.94;65.05
72794;BME280;63436;26.334;50.194;2023-02-28T02:36:15;61397.39;;;13.18;65.05
72794;BME280;63436;26.334;50.194;2023-02-28T02:38:34;61397.39;;;13.18;65.05
72794;BME280;63436;26.334;50.194;2023-02-28T02:41:08;61397.39;;;12.94;65.05
72794;BME280;63436;26.334;50.194;2023-02-28T02:43:32;61397.39;;;13.18;65.05
72794;BME280;63436;26.334;50.194;2023-02-28T02:45:51;61397.39;;;12.94;65.05
72794;BME280;63436;26.334;50.194;2023-02-28T02:48:16;61397.39;;;13.18;65.05
72794;BME280;63436;26.334;50.194;2023-02-28T02:50:39;61397.39;;;13.18;65.05
72794;BME280;63436;26.334;50.194;2023-02-28T02:53:04;61397.39;;;13.18;65.05
72794;BME280;63436;26.334;50.194;2023-02-28T02:55:30;61397.39;;;13.18;65.05
72794;BME280;63436;26.334;50.194;2023-02-28T02:57:56;61397.39;;;13.18;65.05
72794;BME280;63436;26.334;50.194;2023-02-28T03:00:25;61397.39;;;12.94;65.05
72794;BME280;63436;26.334;50.194;2023-02-28T03:02:45;61397.39;;;13.18;65.05
72794;BME280;63436;26.334;50.194;2023-02-28T03:05:17;61397.39;;;13.18;65.05
72794;BME280;63436;26.334;50.194;2023-02-28T03:07:35;61397.39;;;13.18;65.05
72794;BME280;63436;26.334;50.194;2023-02-28T03:10:01;61397.39;;;13.18;65.05
72794;BME280;63436;26.334;50.194;2023-02-28T03:12:33;61397.39;;;12.94;65.05
72794;BME280;63436;26.334;50.194;2023-02-28T03:14:56;61397.39;;;13.18;65.05
72794;BME280;63436;26.334;50.194;2023-02-28T03:17:31;61397.39;;;13.18;65.05
72794;BME280;63436;26.334;50.194;2023-02-28T03:19:51;61397.39;;;13.18;65.05
72794;BME280;63436;26.334;50.194;2023-02-28T03:22:19;61397.39;;;13.18;65.05
72794;BME280;63436;26.334;50.194;2023-02-28T03:24:37;61397.39;;;12.94;65.05
72794;BME280;63436;26.334;50.194;2023-02-28T03:27:04;61397.39;;;13.18;65.05
72794;BME280;63436;26.334;50.194;2023-02-28T03:29:33;61397.39;;;13.18;65.05
72794;BME280;63436;26.334;50.194;2023-02-28T03:31:58;61397.39;;;12.94;65.05
72794;BME280;63436;26.334;50.194;2023-02-28T03:34:26;61397.39;;;13.18;65.05
72794;BME280;63436;26.334;50.194;2023-02-28T03:36:46;61397.39;;;13.18;65.05
72794;BME280;63436;26.334;50.194;2023-02-28T03:39:08;61397.39;;;13.18;65.05
72794;BME280;63436;26.334;50.194;2023-02-28T03:41:36;61397.39;;;12.94;65.05
72794;BME280;63436;26.334;50.194;2023-02-28T03:43:59;61397.39;;;13.18;65.05
72794;BME280;63436;26.334;50.194;2023-02-28T03:46:30;61397.39;;;13.18;65.05
72794;BME280;63436;26.334;50.194;2023-02-28T03:48:56;61397.39;;;12.94;65.05
72794;BME280;63436;26.334;50.194;2023-02-28T03:51:16;61397.39;;;13.18;65.05
72794;BME280;63436;26.334;50.194;2023-02-28T03:53:41;61397.39;;;13.18;65.05
72794;BME280;63436;26.334;50.194;2023-02-28T03:56:09;61397.39;;;13.18;65.05
72794;BME280;63436;26.334;50.194;2023-02-28T03:58:32;61397.39;;;13.18;65.05
72794;BME280;63436;26.334;50.194;2023-02-28T04:00:59;61397.39;;;12.94;65.05
72794;BME280;63436;26.334;50.194;2023-02-28T04:03:21;61397.39;;;13.18;65.05
72794;BME280;63436;26.334;50.194;2023-02-28T04:05:50;61397.39;;;13.18;65.05
72794;BME280;63436;26.334;50.194;2023-02-28T04:08:11;61397.39;;;13.18;65.05
72794;BME280;63436;26.334;50.194;2023-02-28T04:10:36;61397.39;;;12.94;65.05
72794;BME280;63436;26.334;50.194;2023-02-28T04:13:01;61397.39;;;13.18;65.05
72794;BME280;63436;26.334;50.194;2023-02-28T04:15:27;61397.39;;;12.94;65.05
72794;BME280;63436;26.334;50.194;2023-02-28T04:17:53;61397.39;;;12.94;65.05
72794;BME280;63436;26.334;50.194;2023-02-28T04:20:28;61397.39;;;12.94;65.05
72794;BME280;63436;26.334;50.194;2023-02-28T04:22:43;61397.39;;;12.94;65.05
72794;BME280;63436;26.334;50.194;2023-02-28T04:25:10;61397.39;;;12.70;65.05
72794;BME280;63436;26.334;50.194;2023-02-28T04:27:34;61397.39;;;12.70;65.05
72794;BME280;63436;26.334;50.194;2023-02-28T04:29:59;61397.39;;;12.94;65.05
72794;BME280;63436;26.334;50.194;2023-02-28T04:32:25;61397.39;;;13.18;65.05
72794;BME280;63436;26.334;50.194;2023-02-28T04:34:49;61397.39;;;12.94;65.05
72794;BME280;63436;26.334;50.194;2023-02-28T04:37:15;61397.39;;;12.94;65.05
72794;BME280;63436;26.334;50.194;2023-02-28T04:39:41;61397.39;;;12.94;65.05
72794;BME280;63436;26.334;50.194;2023-02-28T04:42:06;61397.39;;;12.70;65.05
72794;BME280;63436;26.334;50.194;2023-02-28T04:44:31;61397.39;;;12.70;65.05
72794;BME280;63436;26.334;50.194;2023-02-28T04:46:58;61397.39;;;12.70;65.05
72794;BME280;63436;26.334;50.194;2023-02-28T04:49:23;61397.39;;;12.70;65.05
72794;BME280;63436;26.334;50.194;2023-02-28T04:51:48;61397.39;;;12.70;65.05
72794;BME280;63436;26.334;50.194;2023-02-28T04:54:14;61397.39;;;12.70;65.05
72794;BME280;63436;26.334;50.194;2023-02-28T04:56:39;61397.39;;;12.94;65.05
72794;BME280;63436;26.334;50.194;2023-02-28T04:59:06;61397.39;;;13.18;65.05
72794;BME280;63436;26.334;50.194;2023-02-28T05:01:33;61397.39;;;13.18;65.05
72794;BME280;63436;26.334;50.194;2023-02-28T05:04:05;61397.39;;;12.94;65.05
72794;BME280;63436;26.334;50.194;2023-02-28T05:06:28;61397.39;;;12.70;65.05
72794;BME280;63436;26.334;50.194;2023-02-28T05:08:57;61397.39;;;12.94;65.05
72794;BME280;63436;26.334;50.194;2023-02-28T05:11:16;61397.39;;;12.94;65.05
72794;BME280;63436;26.334;50.194;2023-02-28T05:13:38;61397.39;;;12.94;65.05
72794;BME280;63436;26.334;50.194;2023-02-28T05:16:04;61397.39;;;12.94;65.05
72794;BME280;63436;26.334;50.194;2023-02-28T05:18:29;61397.39;;;13.18;65.05
72794;BME280;63436;26.334;50.194;2023-02-28T05:20:55;61397.39;;;13.42;65.05
72794;BME280;63436;26.334;50.194;2023-02-28T05:23:21;61397.39;;;13.42;65.05
72794;BME280;63436;26.334;50.194;2023-02-28T05:25:45;61397.39;;;13.42;65.05
72794;BME280;63436;26.334;50.194;2023-02-28T05:28:10;61397.39;;;13.42;65.05
72794;BME280;63436;26.334;50.194;2023-02-28T05:30:37;61397.39;;;12.94;65.05
72794;BME280;63436;26.334;50.194;2023-02-28T05:33:01;61397.39;;;13.18;65.05
72794;BME280;63436;26.334;50.194;2023-02-28T05:35:26;61397.39;;;13.18;65.05
72794;BME280;63436;26.334;50.194;2023-02-28T05:37:53;61397.39;;;13.18;65.05
72794;BME280;63436;26.334;50.194;2023-02-28T05:40:17;61397.39;;;12.94;65.05
72794;BME280;63436;26.334;50.194;2023-02-28T05:42:42;61397.39;;;12.94;65.05
72794;BME280;63436;26.334;50.194;2023-02-28T05:45:08;61397.39;;;12.70;65.05
72794;BME280;63436;26.334;50.194;2023-02-28T05:47:33;61397.39;;;12.70;65.05
72794;BME280;63436;26.334;50.194;2023-02-28T05:49:59;61397.39;;;12.94;65.05
72794;BME280;63436;26.334;50.194;2023-02-28T05:52:24;61397.39;;;12.70;65.05
72794;BME280;63436;26.334;50.194;2023-02-28T05:54:49;61397.39;;;12.46;65.05
72794;BME280;63436;26.334;50.194;2023-02-28T05:57:14;61397.39;;;12.70;65.05
72794;BME280;63436;26.334;50.194;2023-02-28T05:59:40;61397.39;;;12.70;65.05
72794;BME280;63436;26.334;50.194;2023-02-28T06:02:06;61397.39;;;12.70;65.05
72794;BME280;63436;26.334;50.194;2023-02-28T06:04:30;61397.39;;;12.70;65.05
72794;BME280;63436;26.334;50.194;2023-02-28T06:06:55;61397.39;;;12.70;65.05
72794;BME280;63436;26.334;50.194;2023-02-28T06:09:21;61397.39;;;12.46;65.05
72794;BME280;63436;26.334;50.194;2023-02-28T06:11:47;61397.39;;;12.70;65.05
72794;BME280;63436;26.334;50.194;2023-02-28T06:14:15;61397.39;;;12.46;65.05
72794;BME280;63436;26.334;50.194;2023-02-28T06:16:38;61397.39;;;12.46;65.05
72794;BME280;63436;26.334;50.194;2023-02-28T06:19:04;61397.39;;;12.22;65.05
72794;BME280;63436;26.334;50.194;2023-02-28T06:21:30;61397.39;;;12.46;65.05
72794;BME280;63436;26.334;50.194;2023-02-28T06:23:56;61397.39;;;12.46;65.05
72794;BME280;63436;26.334;50.194;2023-02-28T06:26:20;61397.39;;;12.22;65.05
72794;BME280;63436;26.334;50.194;2023-02-28T06:28:46;61397.39;;;12.22;65.05
72794;BME280;63436;26.334;50.194;2023-02-28T06:31:12;61397.39;;;12.22;65.05
72794;BME280;63436;26.334;50.194;2023-02-28T06:33:36;61397.39;;;12.22;65.05
72794;BME280;63436;26.334;50.194;2023-02-28T06:36:02;61397.39;;;12.22;65.05
72794;BME280;63436;26.334;50.194;2023-02-28T06:38:27;61397.39;;;12.22;65.05
72794;BME280;63436;26.334;50.194;2023-02-28T06:40:56;61397.39;;;12.22;65.05
72794;BME280;63436;26.334;50.194;2023-02-28T06:43:17;61397.39;;;12.22;65.05
72794;BME280;63436;26.334;50.194;2023-02-28T06:45:43;61397.39;;;12.22;65.05
72794;BME280;63436;26.334;50.194;2023-02-28T06:48:08;61397.39;;;12.46;65.05
72794;BME280;63436;26.334;50.194;2023-02-28T06:50:35;61397.39;;;12.22;65.05
72794;BME280;63436;26.334;50.194;2023-02-28T06:52:59;61397.39;;;12.22;65.05
72794;BME280;63436;26.334;50.194;2023-02-28T06:55:24;61397.39;;;12.22;65.05
72794;BME280;63436;26.334;50.194;2023-02-28T06:57:50;61397.39;;;12.22;65.05
72794;BME280;63436;26.334;50.194;2023-02-28T07:00:16;61397.39;;;11.99;65.05
72794;BME280;63436;26.334;50.194;2023-02-28T07:02:40;61397.39;;;12.22;65.05
72794;BME280;63436;26.334;50.194;2023-02-28T07:05:07;61397.39;;;12.22;65.05
72794;BME280;63436;26.334;50.194;2023-02-28T07:07:32;61397.39;;;12.22;65.05
72794;BME280;63436;26.334;50.194;2023-02-28T07:09:57;61397.39;;;12.22;65.05
72794;BME280;63436;26.334;50.194;2023-02-28T07:12:24;61397.39;;;12.46;65.05
72794;BME280;63436;26.334;50.194;2023-02-28T07:14:47;61397.39;;;12.70;65.05
72794;BME280;63436;26.334;50.194;2023-02-28T07:17:13;61397.39;;;12.22;65.05
72794;BME280;63436;26.334;50.194;2023-02-28T07:19:40;61397.39;;;11.99;65.05
72794;BME280;63436;26.334;50.194;2023-02-28T07:22:05;61397.39;;;12.22;65.05
72794;BME280;63436;26.334;50.194;2023-02-28T07:24:29;61397.39;;;12.22;65.05
72794;BME280;63436;26.334;50.194;2023-02-28T07:26:56;61397.39;;;12.22;65.05
72794;BME280;63436;26.334;50.194;2023-02-28T07:29:20;61397.39;;;11.99;65.05
72794;BME280;63436;26.334;50.194;2023-02-28T07:31:46;61397.39;;;11.99;65.05
72794;BME280;63436;26.334;50.194;2023-02-28T07:34:12;61397.39;;;12.22;65.05
72794;BME280;63436;26.334;50.194;2023-02-28T07:36:37;61397.39;;;12.22;65.05
72794;BME280;63436;26.334;50.194;2023-02-28T07:39:03;61397.39;;;11.99;65.05
72794;BME280;63436;26.334;50.194;2023-02-28T07:41:27;61397.39;;;12.22;65.05
72794;BME280;63436;26.334;50.194;2023-02-28T07:43:54;61397.39;;;11.99;65.05
72794;BME280;63436;26.334;50.194;2023-02-28T07:46:18;61397.39;;;12.22;65.05
72794;BME280;63436;26.334;50.194;2023-02-28T07:48:44;61397.39;;;11.99;65.05
72794;BME280;63436;26.334;50.194;2023-02-28T07:51:08;61397.39;;;12.22;65.05
72794;BME280;63436;26.334;50.194;2023-02-28T07:53:34;61397.39;;;11.99;65.05
72794;BME280;63436;26.334;50.194;2023-02-28T07:56:01;61397.39;;;11.75;65.05
72794;BME280;63436;26.334;50.194;2023-02-28T07:58:25;61397.39;;;11.99;65.05
72794;BME280;63436;26.334;50.194;2023-02-28T08:00:49;61397.39;;;11.75;65.05
72794;BME280;63436;26.334;50.194;2023-02-28T08:03:16;61397.39;;;11.75;65.05
72794;BME280;63436;26.334;50.194;2023-02-28T08:05:40;61397.39;;;11.75;65.05
72794;BME280;63436;26.334;50.194;2023-02-28T08:08:06;61397.39;;;11.99;65.05
72794;BME280;63436;26.334;50.194;2023-02-28T08:10:31;61397.39;;;11.99;65.05
72794;BME280;63436;26.334;50.194;2023-02-28T08:12:56;61397.39;;;11.99;65.05
72794;BME280;63436;26.334;50.194;2023-02-28T08:15:21;61397.39;;;11.99;65.05
72794;BME280;63436;26.334;50.194;2023-02-28T08:17:47;61397.39;;;12.22;65.05
72794;BME280;63436;26.334;50.194;2023-02-28T08:20:13;61397.39;;;12.22;65.05
72794;BME280;63436;26.334;50.194;2023-02-28T08:22:38;61397.39;;;11.99;65.05
72794;BME280;63436;26.334;50.194;2023-02-28T08:25:04;61397.39;;;11.99;65.05
72794;BME280;63436;26.334;50.194;2023-02-28T08:27:28;61397.39;;;11.99;65.05
72794;BME280;63436;26.334;50.194;2023-02-28T08:29:54;61397.39;;;11.99;65.05
72794;BME280;63436;26.334;50.194;2023-02-28T08:32:20;61397.39;;;12.22;65.05
72794;BME280;63436;26.334;50.194;2023-02-28T08:34:45;61397.39;;;11.99;65.05
72794;BME280;63436;26.334;50.194;2023-02-28T08:37:10;61397.39;;;11.75;65.05
72794;BME280;63436;26.334;50.194;2023-02-28T08:39:37;61397.39;;;11.75;65.05
72794;BME280;63436;26.334;50.194;2023-02-28T08:42:02;61397.39;;;11.99;65.05
72794;BME280;63436;26.334;50.194;2023-02-28T08:44:27;61397.39;;;11.75;65.05
72794;BME280;63436;26.334;50.194;2023-02-28T08:46:54;61397.39;;;11.75;65.05
72794;BME280;63436;26.334;50.194;2023-02-28T08:49:18;61397.39;;;11.75;65.05
72794;BME280;63436;26.334;50.194;2023-02-28T08:51:43;61397.39;;;11.99;65.05
72794;BME280;63436;26.334;50.194;2023-02-28T08:54:10;61397.39;;;11.75;65.05
72794;BME280;63436;26.334;50.194;2023-02-28T08:56:34;61397.39;;;11.75;65.05
72794;BME280;63436;26.334;50.194;2023-02-28T08:59:00;61397.39;;;11.75;65.05
72794;BME280;63436;26.334;50.194;2023-02-28T09:01:27;61397.39;;;11.75;65.05
72794;BME280;63436;26.334;50.194;2023-02-28T09:03:51;61397.39;;;11.75;65.05
72794;BME280;63436;26.334;50.194;2023-02-28T09:06:17;61397.39;;;11.51;65.05
72794;BME280;63436;26.334;50.194;2023-02-28T09:08:42;61397.39;;;11.75;65.05
72794;BME280;63436;26.334;50.194;2023-02-28T09:11:07;61397.39;;;11.51;65.05
72794;BME280;63436;26.334;50.194;2023-02-28T09:13:33;61397.39;;;11.75;65.05
72794;BME280;63436;26.334;50.194;2023-02-28T09:15:59;61397.39;;;11.99;65.05
72794;BME280;63436;26.334;50.194;2023-02-28T09:18:23;61397.39;;;12.22;65.05
72794;BME280;63436;26.334;50.194;2023-02-28T09:20:48;61397.39;;;11.75;65.05
72794;BME280;63436;26.334;50.194;2023-02-28T09:23:15;61397.39;;;11.99;65.05
72794;BME280;63436;26.334;50.194;2023-02-28T09:25:45;61397.39;;;11.75;65.05
72794;BME280;63436;26.334;50.194;2023-02-28T09:28:10;61397.39;;;11.75;65.05
72794;BME280;63436;26.334;50.194;2023-02-28T09:30:32;61397.39;;;11.99;65.05
72794;BME280;63436;26.334;50.194;2023-02-28T09:32:55;61397.39;;;11.99;65.05
72794;BME280;63436;26.334;50.194;2023-02-28T09:35:22;61397.39;;;11.99;65.05
72794;BME280;63436;26.334;50.194;2023-02-28T09:37:48;61397.39;;;11.99;65.05
72794;BME280;63436;26.334;50.194;2023-02-28T09:40:14;61397.39;;;12.22;65.05
72794;BME280;63436;26.334;50.194;2023-02-28T09:42:39;61397.39;;;11.75;65.05
72794;BME280;63436;26.334;50.194;2023-02-28T09:45:11;61397.39;;;11.99;65.05
72794;BME280;63436;26.334;50.194;2023-02-28T09:47:32;61397.39;;;11.99;65.05
72794;BME280;63436;26.334;50.194;2023-02-28T09:49:55;61397.39;;;11.75;65.05
72794;BME280;63436;26.334;50.194;2023-02-28T09:52:25;61397.39;;;11.99;65.05
72794;BME280;63436;26.334;50.194;2023-02-28T09:54:44;61397.39;;;12.22;65.05
72794;BME280;63436;26.334;50.194;2023-02-28T09:57:17;61397.39;;;12.22;65.05
72794;BME280;63436;26.334;50.194;2023-02-28T09:59:44;61397.39;;;11.75;65.05
72794;BME280;63436;26.334;50.194;2023-02-28T10:02:08;61397.39;;;11.75;65.05
72794;BME280;63436;26.334;50.194;2023-02-28T10:04:38;61397.39;;;11.51;65.05
72794;BME280;63436;26.334;50.194;2023-02-28T10:06:53;61397.39;;;11.75;65.05
72794;BME280;63436;26.334;50.194;2023-02-28T10:09:20;61397.39;;;11.75;65.05
72794;BME280;63436;26.334;50.194;2023-02-28T10:11:45;61397.39;;;11.75;65.05
72794;BME280;63436;26.334;50.194;2023-02-28T10:14:14;61397.39;;;11.75;65.05
72794;BME280;63436;26.334;50.194;2023-02-28T10:16:38;61397.39;;;11.75;65.05
72794;BME280;63436;26.334;50.194;2023-02-28T10:19:05;61397.39;;;11.75;65.05
72794;BME280;63436;26.334;50.194;2023-02-28T10:21:29;61397.39;;;11.75;65.05
72794;BME280;63436;26.334;50.194;2023-02-28T10:23:56;61397.39;;;11.27;65.05
72794;BME280;63436;26.334;50.194;2023-02-28T10:26:17;61397.39;;;11.75;65.05
72794;BME280;63436;26.334;50.194;2023-02-28T10:28:42;61397.39;;;11.51;65.05
72794;BME280;63436;26.334;50.194;2023-02-28T10:31:13;61397.39;;;11.27;65.05
72794;BME280;63436;26.334;50.194;2023-02-28T10:33:35;61397.39;;;11.27;65.05
72794;BME280;63436;26.334;50.194;2023-02-28T10:35:59;61397.39;;;11.27;65.05
72794;BME280;63436;26.334;50.194;2023-02-28T10:38:26;61397.39;;;11.75;65.05
72794;BME280;63436;26.334;50.194;2023-02-28T10:40:50;61397.39;;;11.27;65.05
72794;BME280;63436;26.334;50.194;2023-02-28T10:43:20;61397.39;;;11.27;65.05
72794;BME280;63436;26.334;50.194;2023-02-28T10:50:42;61397.39;;;11.51;65.05
72794;BME280;63436;26.334;50.194;2023-02-28T10:55:24;61397.39;;;11.75;65.05
72794;BME280;63436;26.334;50.194;2023-02-28T10:57:48;61397.39;;;11.27;65.05
72794;BME280;63436;26.334;50.194;2023-02-28T11:00:17;61397.39;;;11.75;65.05
72794;BME280;63436;26.334;50.194;2023-02-28T11:02:38;61397.39;;;11.51;65.05
72794;BME280;63436;26.334;50.194;2023-02-28T11:07:29;61397.39;;;11.75;65.05
72794;BME280;63436;26.334;50.194;2023-02-28T11:09:55;61397.39;;;11.75;65.05
72794;BME280;63436;26.334;50.194;2023-02-28T11:12:23;61397.39;;;11.75;65.05
72794;BME280;63436;26.334;50.194;2023-02-28T11:14:49;61397.39;;;11.75;65.05
72794;BME280;63436;26.334;50.194;2023-02-28T11:17:19;61397.39;;;11.51;65.05
72794;BME280;63436;26.334;50.194;2023-02-28T11:19:39;61397.39;;;11.51;65.05
72794;BME280;63436;26.334;50.194;2023-02-28T11:22:02;61397.39;;;11.51;65.05
72794;BME280;63436;26.334;50.194;2023-02-28T11:24:29;61397.39;;;11.51;65.05
72794;BME280;63436;26.334;50.194;2023-02-28T11:26:51;61397.39;;;11.27;65.05
72794;BME280;63436;26.334;50.194;2023-02-28T11:29:20;61397.39;;;11.75;65.05
72794;BME280;63436;26.334;50.194;2023-02-28T11:31:42;61397.39;;;11.75;65.05
72794;BME280;63436;26.334;50.194;2023-02-28T11:34:23;61397.39;;;11.75;65.05
72794;BME280;63436;26.334;50.194;2023-02-28T11:36:34;61397.39;;;11.27;65.05
72794;BME280;63436;26.334;50.194;2023-02-28T11:39:08;61397.39;;;11.75;65.05
72794;BME280;63436;26.334;50.194;2023-02-28T11:41:38;61397.39;;;11.75;65.05
72794;BME280;63436;26.334;50.194;2023-02-28T11:44:04;61397.39;;;11.75;65.05
72794;BME280;63436;26.334;50.194;2023-02-28T11:46:24;61397.39;;;11.75;65.05
72794;BME280;63436;26.334;50.194;2023-02-28T11:48:47;61397.39;;;11.75;65.05
72794;BME280;63436;26.334;50.194;2023-02-28T11:51:15;61397.39;;;11.51;65.05
72794;BME280;63436;26.334;50.194;2023-02-28T11:53:50;61397.39;;;11.75;65.05
72794;BME280;63436;26.334;50.194;2023-02-28T11:56:03;61397.39;;;11.75;65.05
72794;BME280;63436;26.334;50.194;2023-02-28T11:58:34;61397.39;;;11.75;65.05
72794;BME280;63436;26.334;50.194;2023-02-28T12:00:59;61397.39;;;11.75;65.05
72794;BME280;63436;26.334;50.194;2023-02-28T12:03:22;61397.39;;;11.75;65.05
72794;BME280;63436;26.334;50.194;2023-02-28T12:05:43;61397.39;;;11.75;65.05
72794;BME280;63436;26.334;50.194;2023-02-28T12:08:18;61397.39;;;11.75;65.05
72794;BME280;63436;26.334;50.194;2023-02-28T12:10:36;61397.39;;;11.99;65.05
72794;BME280;63436;26.334;50.194;2023-02-28T12:13:07;61397.39;;;11.99;65.05
72794;BME280;63436;26.334;50.194;2023-02-28T12:15:33;61397.39;;;11.75;65.05
72794;BME280;63436;26.334;50.194;2023-02-28T12:17:55;61397.39;;;11.75;65.05
72794;BME280;63436;26.334;50.194;2023-02-28T12:20:21;61397.39;;;11.99;65.05
72794;BME280;63436;26.334;50.194;2023-02-28T12:22:43;61397.39;;;11.51;65.05
72794;BME280;63436;26.334;50.194;2023-02-28T12:27:31;61397.39;;;11.27;65.05
72794;BME280;63436;26.334;50.194;2023-02-28T12:29:57;61397.39;;;11.51;65.05
72794;BME280;63436;26.334;50.194;2023-02-28T12:32:23;61397.39;;;11.51;65.05
72794;BME280;63436;26.334;50.194;2023-02-28T12:34:47;61397.39;;;11.75;65.05
72794;BME280;63436;26.334;50.194;2023-02-28T12:37:15;61397.39;;;11.51;65.05
72794;BME280;63436;26.334;50.194;2023-02-28T12:39:37;61397.39;;;11.75;65.05
72794;BME280;63436;26.334;50.194;2023-02-28T12:42:03;61397.39;;;11.75;65.05
72794;BME280;63436;26.334;50.194;2023-02-28T12:44:30;61397.39;;;11.75;65.05
72794;BME280;63436;26.334;50.194;2023-02-28T12:46:52;61397.39;;;11.75;65.05
72794;BME280;63436;26.334;50.194;2023-02-28T12:49:19;61397.39;;;11.75;65.05
72794;BME280;63436;26.334;50.194;2023-02-28T12:51:44;61397.39;;;11.75;65.05
72794;BME280;63436;26.334;50.194;2023-02-28T12:54:15;61397.39;;;11.75;65.05
72794;BME280;63436;26.334;50.194;2023-02-28T12:56:40;61397.39;;;11.99;65.05